Aeroporto :







RITROVATECI SU...

 
LOGIN :

Iscrizione | Disclaimer

   EN    FR    IT 

 









Sommario :    VFR   VFR Marginale   IFR   IFR Intensivo   IFR Molto Intensivo
Visibilità : 
Base nubi : 
>= 8 km
>= 3000ft
5 / 8 km
1000 / 3000 ft
1500m / 5 km
500 / 1000 ft
800 / 1500m
200 / 500 ft
< 800m
< 200 ft
Simboli :   Temporali  Nebbia  Neve Forte  Precipitazioni Forti  Vento > 20 kt






- Altitudine del aeroporto : 930 ft


KEFK - Newport State

ULTIMO METAR :
  • 191721Z AUTO 30007KT 270V330 10SM BKN060 11/M06 A3038 RMK AO2

METARs OBSOLETI :
  • 191641Z AUTO 34006G14KT 10SM OVC050 10/M05 A3038 RMK AO2
  • 191601Z AUTO 35007KT 10SM SCT037 BKN045 BKN050 09/M03 A3038 RMK AO2
  • 191521Z AUTO 04005KT 10SM BKN035 BKN041 BKN047 09/M01 A3038 RMK AO2

TAF N/A
FIR KZBW / America del Nord



MetMap, La meteo Aeronautica in un colpo d'occhio ! - Copyright ORBIFLY Dicembre 2007 - Disclaimer

ORBIFLY MET'MAP TEAM :

Programmazione e sviluppo : Alexandra Zaïnal
Concezione : Baudouin d'Aumeries
Aiuto per la programmazione : Marc-Olivier Méhu
Supporto tecnico e logistico : Manuel Goepfert
Aiuto per la traduzione : Arnaldo La Scala

Contatto : metmap@orbifly.com




FONTI E CREDITI :

   NOAA